Time;durP1;ratioP1;P1;durP2;ratioP2;P2;SDS_P1;SDS_P2;PMS_P1;PMS_P2;Temp;Humidity;BMP_temperature;BMP_pressure;BME280_temperature;BME280_humidity;BME280_pressure;Samples;Min_cycle;Max_cycle;Signal;HPM_P1;HPM_P2
2022/05/27 00:00:54;;;;;;;3.73;3.20;;;14.50;99.90;;;;;;4957168;28;20860;-66
2022/05/27 00:03:20;;;;;;;3.07;2.70;;;14.40;99.90;;;;;;4956574;28;20184;-66
2022/05/27 00:05:50;;;;;;;3.20;2.87;;;14.40;99.90;;;;;;4956751;28;20181;-65
2022/05/27 00:08:16;;;;;;;2.90;2.60;;;14.40;99.90;;;;;;4956974;28;20173;-66
2022/05/27 00:10:41;;;;;;;2.27;2.07;;;14.40;99.90;;;;;;4957150;28;20471;-66
2022/05/27 00:13:07;;;;;;;3.37;2.73;;;14.40;99.90;;;;;;4958211;28;20420;-66
2022/05/27 00:15:33;;;;;;;2.90;2.60;;;14.50;99.90;;;;;;4957914;28;20195;-65
2022/05/27 00:17:58;;;;;;;2.00;1.80;;;14.50;99.90;;;;;;4958065;28;20196;-65
2022/05/27 00:20:24;;;;;;;3.00;2.40;;;14.50;99.90;;;;;;4956962;28;20852;-67
2022/05/27 00:22:49;;;;;;;2.63;2.43;;;14.40;99.90;;;;;;4956821;28;20181;-66
2022/05/27 00:25:15;;;;;;;3.37;2.33;;;14.30;99.90;;;;;;4956337;28;20177;-65
2022/05/27 00:27:40;;;;;;;2.70;2.50;;;14.30;99.90;;;;;;4956766;28;20188;-67
2022/05/27 00:30:08;;;;;;;2.43;2.23;;;14.30;99.90;;;;;;4956671;28;20216;-67
2022/05/27 00:32:36;;;;;;;3.60;2.80;;;14.30;99.90;;;;;;4956858;28;20177;-65
2022/05/27 00:35:01;;;;;;;2.80;2.60;;;14.20;99.90;;;;;;4957140;28;20412;-67
2022/05/27 00:37:27;;;;;;;2.93;2.60;;;14.00;99.90;;;;;;4956789;28;20421;-66
2022/05/27 00:39:52;;;;;;;2.40;2.20;;;13.90;99.90;;;;;;4956959;28;20180;-64
2022/05/27 00:42:18;;;;;;;2.63;2.43;;;13.80;99.90;;;;;;4957178;28;20778;-66
2022/05/27 00:44:43;;;;;;;2.83;2.53;;;13.80;99.90;;;;;;4956787;28;20182;-66
2022/05/27 00:47:13;;;;;;;3.33;2.40;;;13.80;99.90;;;;;;4956647;28;20173;-66
2022/05/27 00:49:53;;;;;;;4.83;4.30;;;13.80;99.90;;;;;;4955921;28;20181;-65
2022/05/27 00:52:20;;;;;;;3.00;2.70;;;13.80;99.90;;;;;;4956326;28;21053;-66
2022/05/27 00:54:46;;;;;;;3.93;3.00;;;13.80;99.90;;;;;;4956355;28;20423;-66
2022/05/27 00:57:27;;;;;;;3.63;3.33;;;13.70;99.90;;;;;;4956513;28;20416;-66
2022/05/27 00:59:58;;;;;;;2.90;2.40;;;13.60;99.90;;;;;;4955419;28;20169;-67
2022/05/27 01:02:24;;;;;;;2.40;2.30;;;13.60;99.90;;;;;;4955841;28;20428;-66
2022/05/27 01:04:51;;;;;;;2.60;2.40;;;13.70;99.90;;;;;;4955568;28;20428;-67
2022/05/27 01:07:17;;;;;;;2.70;2.20;;;13.70;99.90;;;;;;4955881;28;20424;-65
2022/05/27 01:09:47;;;;;;;2.17;2.00;;;13.70;99.90;;;;;;4954782;28;20436;-65
2022/05/27 01:12:35;;;;;;;2.50;2.30;;;13.70;99.90;;;;;;4955309;28;20468;-66
2022/05/27 01:15:23;;;;;;;2.93;2.73;;;13.70;99.90;;;;;;4955341;28;20563;-66
2022/05/27 01:18:24;;;;;;;2.90;2.60;;;13.70;99.90;;;;;;4955948;28;20419;-66
2022/05/27 01:20:52;;;;;;;3.23;2.43;;;13.70;99.90;;;;;;4955760;28;20445;-67
2022/05/27 01:23:38;;;;;;;3.50;3.13;;;13.60;99.90;;;;;;4954937;28;20420;-66
2022/05/27 01:26:41;;;;;;;4.80;2.80;;;13.60;99.90;;;;;;4958467;28;20910;-65
2022/05/27 01:29:27;;;;;;;3.00;2.80;;;13.50;99.90;;;;;;4959217;28;20471;-66
2022/05/27 01:32:05;;;;;;;3.23;2.57;;;13.40;99.90;;;;;;4959589;28;20463;-66
2022/05/27 01:34:47;;;;;;;2.60;2.40;;;13.30;99.90;;;;;;4959547;29;20427;-66
2022/05/27 01:37:38;;;;;;;2.50;2.30;;;13.30;99.90;;;;;;4959997;28;20420;-65
2022/05/27 01:40:11;;;;;;;4.87;4.00;;;13.30;99.90;;;;;;4959281;28;20442;-65
2022/05/27 01:43:16;;;;;;;3.53;3.23;;;13.20;99.90;;;;;;4959089;28;20408;-66
2022/05/27 01:45:50;;;;;;;2.47;2.23;;;13.20;99.90;;;;;;4953987;28;20436;-66
2022/05/27 01:48:25;;;;;;;3.53;2.50;;;13.20;99.90;;;;;;4959699;28;20441;-66
2022/05/27 01:50:54;;;;;;;3.07;2.77;;;13.20;99.90;;;;;;4959792;28;20472;-66
2022/05/27 01:53:36;;;;;;;2.63;2.30;;;13.10;99.90;;;;;;4959271;28;20428;-66
2022/05/27 01:56:15;;;;;;;2.67;2.47;;;13.10;99.90;;;;;;4958815;28;20429;-66
2022/05/27 01:58:46;;;;;;;5.47;4.07;;;13.00;99.90;;;;;;4958310;28;20902;-66
2022/05/27 02:01:20;;;;;;;3.53;2.80;;;13.00;99.90;;;;;;4959267;28;20537;-66
2022/05/27 02:03:51;;;;;;;4.37;3.03;;;13.00;99.90;;;;;;4958512;28;20798;-66
2022/05/27 02:06:30;;;;;;;3.30;3.10;;;13.10;99.90;;;;;;4958577;28;20973;-67
2022/05/27 02:09:23;;;;;;;3.00;2.70;;;13.20;99.90;;;;;;4957707;28;20420;-66
2022/05/27 02:11:56;;;;;;;3.10;2.87;;;13.20;99.90;;;;;;4957986;28;20476;-66
2022/05/27 02:14:36;;;;;;;3.47;3.17;;;13.20;99.90;;;;;;4958291;28;20427;-66
2022/05/27 02:17:10;;;;;;;3.70;2.50;;;13.20;99.90;;;;;;4958200;28;20914;-66
2022/05/27 02:19:41;;;;;;;3.37;2.90;;;13.10;99.90;;;;;;4957602;28;20910;-66
2022/05/27 02:22:12;;;;;;;3.00;2.30;;;13.10;99.90;;;;;;4958145;28;20430;-66
2022/05/27 02:24:48;;;;;;;2.53;2.33;;;13.00;99.90;;;;;;4957736;28;20495;-67
2022/05/27 02:27:22;;;;;;;5.43;2.77;;;12.90;99.90;;;;;;4958315;28;20431;-66
2022/05/27 02:29:52;;;;;;;2.83;2.47;;;13.00;99.90;;;;;;4957685;28;20424;-67
2022/05/27 02:32:29;;;;;;;3.40;3.10;;;13.00;99.90;;;;;;4957503;28;20856;-66
2022/05/27 02:35:08;;;;;;;2.77;2.53;;;13.10;99.90;;;;;;4957985;28;20416;-65
2022/05/27 02:37:47;;;;;;;2.80;2.50;;;13.20;99.90;;;;;;4957377;28;20423;-66
2022/05/27 02:40:54;;;;;;;2.63;2.30;;;13.20;99.90;;;;;;4957266;28;20455;-66
2022/05/27 02:43:25;;;;;;;2.90;2.70;;;13.20;99.90;;;;;;4917016;29;20947;-66
2022/05/27 02:46:20;;;;;;;2.57;2.37;;;13.00;99.90;;;;;;4952171;28;20437;-66
2022/05/27 02:48:46;;;;;;;2.70;2.43;;;12.90;99.90;;;;;;4957371;28;20448;-66
2022/05/27 02:51:26;;;;;;;3.10;2.90;;;12.80;99.90;;;;;;4956424;28;20483;-66
2022/05/27 02:53:56;;;;;;;2.53;2.43;;;12.80;99.90;;;;;;4956888;28;20168;-66
2022/05/27 02:56:39;;;;;;;3.37;2.80;;;12.70;99.90;;;;;;4956832;28;20420;-65
2022/05/27 02:59:07;;;;;;;6.37;3.20;;;12.80;99.90;;;;;;4956360;28;20507;-66
2022/05/27 03:01:33;;;;;;;2.70;2.50;;;12.90;99.90;;;;;;4956490;28;20456;-66
2022/05/27 03:03:58;;;;;;;3.37;2.47;;;13.00;99.90;;;;;;4956421;28;20426;-66
2022/05/27 03:06:26;;;;;;;2.70;2.10;;;13.00;99.90;;;;;;4956192;28;20177;-66
2022/05/27 03:09:01;;;;;;;2.80;2.43;;;13.00;99.90;;;;;;4955980;28;20227;-67
2022/05/27 03:11:34;;;;;;;3.73;2.60;;;12.90;99.90;;;;;;4956024;28;20475;-67
2022/05/27 03:14:07;;;;;;;2.20;2.10;;;13.00;99.90;;;;;;4956040;28;20485;-65
2022/05/27 03:17:03;;;;;;;3.17;2.87;;;13.10;99.90;;;;;;4956191;28;20421;-66
2022/05/27 03:19:40;;;;;;;3.77;2.40;;;12.90;99.90;;;;;;4956206;28;20519;-66
2022/05/27 03:22:15;;;;;;;3.20;2.90;;;12.80;99.90;;;;;;4956131;28;20424;-66
2022/05/27 03:25:24;;;;;;;4.13;3.13;;;12.70;99.90;;;;;;4956102;28;20412;-66
2022/05/27 03:28:07;;;;;;;2.93;2.73;;;12.70;99.90;;;;;;4956161;28;20409;-67
2022/05/27 03:30:39;;;;;;;3.23;2.47;;;12.70;99.90;;;;;;4955382;28;20471;-65
2022/05/27 03:33:19;;;;;;;3.43;2.90;;;12.80;99.90;;;;;;4955701;28;20424;-65
2022/05/27 03:36:15;;;;;;;3.83;2.50;;;12.80;99.90;;;;;;4955741;28;20806;-67
2022/05/27 03:39:04;;;;;;;2.70;2.50;;;12.90;99.90;;;;;;4955720;28;20423;-67
2022/05/27 03:41:35;;;;;;;3.23;2.57;;;13.00;99.90;;;;;;4949561;28;20456;-65
2022/05/27 03:44:01;;;;;;;2.50;2.30;;;13.10;99.90;;;;;;4955548;28;20987;-65
2022/05/27 03:46:30;;;;;;;3.03;2.73;;;13.10;99.90;;;;;;4955277;28;20839;-66
2022/05/27 03:48:55;;;;;;;2.70;2.50;;;13.20;99.90;;;;;;4954818;28;20431;-66
2022/05/27 03:51:28;;;;;;;3.30;3.10;;;13.20;99.90;;;;;;4955205;28;20549;-66
2022/05/27 03:54:05;;;;;;;6.27;2.83;;;13.20;99.90;;;;;;4955655;28;20200;-67
2022/05/27 03:56:40;;;;;;;3.10;2.63;;;13.30;99.90;;;;;;4954419;29;20423;-64
2022/05/27 03:59:08;;;;;;;3.27;3.00;;;13.40;99.90;;;;;;4955010;28;20413;-66
2022/05/27 04:01:36;;;;;;;2.97;2.67;;;13.50;99.90;;;;;;4955087;28;20447;-66
2022/05/27 04:04:04;;;;;;;2.80;2.60;;;13.50;99.90;;;;;;4955318;28;20420;-65
2022/05/27 04:06:30;;;;;;;3.90;2.97;;;13.50;99.90;;;;;;4955268;28;20796;-65
2022/05/27 04:08:57;;;;;;;3.23;2.50;;;13.50;99.90;;;;;;4954721;28;20964;-66
2022/05/27 04:11:23;;;;;;;6.33;2.60;;;13.60;99.90;;;;;;4955084;28;20472;-66
2022/05/27 04:13:49;;;;;;;4.50;3.53;;;13.60;99.90;;;;;;4955421;28;20412;-65
2022/05/27 04:16:14;;;;;;;4.40;3.10;;;13.70;99.90;;;;;;4955533;28;20936;-67
2022/05/27 04:18:40;;;;;;;2.57;2.47;;;13.70;99.90;;;;;;4954984;28;20180;-67
2022/05/27 04:21:06;;;;;;;2.70;2.50;;;13.80;99.90;;;;;;4955373;28;20563;-66
2022/05/27 04:23:31;;;;;;;3.17;2.70;;;13.80;99.90;;;;;;4953969;28;20177;-66
2022/05/27 04:25:57;;;;;;;2.87;2.57;;;13.90;99.90;;;;;;4954049;28;20232;-66
2022/05/27 04:28:23;;;;;;;3.03;2.83;;;14.00;99.90;;;;;;4953723;28;20173;-66
2022/05/27 04:30:48;;;;;;;3.00;2.67;;;14.00;99.90;;;;;;4953846;28;20200;-65
2022/05/27 04:33:14;;;;;;;3.00;2.80;;;13.90;99.90;;;;;;4953812;28;20181;-65
2022/05/27 04:35:40;;;;;;;7.37;3.27;;;13.90;99.90;;;;;;4953832;28;20197;-66
2022/05/27 04:38:06;;;;;;;4.60;3.03;;;13.90;99.90;;;;;;4953836;28;20193;-66
2022/05/27 04:40:32;;;;;;;2.77;2.50;;;13.90;99.90;;;;;;4953558;28;20484;-66
2022/05/27 04:42:58;;;;;;;3.57;2.60;;;13.90;99.90;;;;;;4953755;28;21069;-66
2022/05/27 04:45:24;;;;;;;3.33;2.77;;;13.90;99.90;;;;;;4954238;28;20499;-66
2022/05/27 04:47:50;;;;;;;5.23;2.50;;;13.90;99.90;;;;;;4953730;28;20208;-66
2022/05/27 04:50:18;;;;;;;4.57;3.13;;;13.90;99.90;;;;;;4953253;28;20500;-66
2022/05/27 04:52:44;;;;;;;2.77;2.60;;;14.00;99.90;;;;;;4953799;28;20209;-66
2022/05/27 04:55:12;;;;;;;3.10;2.90;;;14.10;99.90;;;;;;4953734;28;20459;-66
2022/05/27 04:57:49;;;;;;;6.23;2.83;;;14.20;99.90;;;;;;4953774;28;20547;-66
2022/05/27 05:00:17;;;;;;;4.63;3.10;;;14.30;99.90;;;;;;4955440;28;20556;-66
2022/05/27 05:02:43;;;;;;;3.03;2.73;;;14.40;99.90;;;;;;4957606;28;20412;-66
2022/05/27 05:05:10;;;;;;;2.90;2.57;;;14.50;99.90;;;;;;4957349;28;20432;-66
2022/05/27 05:07:37;;;;;;;3.03;2.83;;;14.50;99.90;;;;;;4957241;28;20585;-66
2022/05/27 05:10:03;;;;;;;4.60;3.07;;;14.40;99.90;;;;;;4956869;28;20969;-66
2022/05/27 05:12:29;;;;;;;4.37;3.00;;;14.40;99.90;;;;;;4957138;28;20468;-66
2022/05/27 05:14:54;;;;;;;2.53;2.33;;;14.50;99.90;;;;;;4957043;28;20419;-66
2022/05/27 05:17:21;;;;;;;2.57;2.37;;;14.50;99.90;;;;;;4957125;28;20533;-66
2022/05/27 05:19:47;;;;;;;3.37;3.07;;;14.80;99.90;;;;;;4956692;28;20168;-66
2022/05/27 05:22:13;;;;;;;2.53;2.33;;;15.00;99.90;;;;;;4957023;28;20499;-66
2022/05/27 05:24:39;;;;;;;7.87;3.20;;;15.30;99.90;;;;;;4956954;28;20520;-66
2022/05/27 05:27:05;;;;;;;3.60;3.30;;;15.50;99.90;;;;;;4957002;28;20192;-66
2022/05/27 05:29:30;;;;;;;3.27;2.97;;;15.50;99.90;;;;;;4956547;28;20176;-66
2022/05/27 05:31:56;;;;;;;3.87;3.17;;;15.50;99.90;;;;;;4956731;28;20296;-66
2022/05/27 05:34:21;;;;;;;3.43;3.13;;;15.50;99.90;;;;;;4956794;28;20173;-66
2022/05/27 05:36:47;;;;;;;3.90;3.20;;;15.50;99.90;;;;;;4956777;28;20719;-66
2022/05/27 05:39:12;;;;;;;4.43;3.33;;;15.50;99.90;;;;;;4956507;28;20231;-66
2022/05/27 05:41:40;;;;;;;3.10;2.80;;;15.60;99.90;;;;;;4956695;28;20208;-66
2022/05/27 05:44:09;;;;;;;3.50;3.30;;;15.60;99.90;;;;;;4956553;28;20659;-66
2022/05/27 05:46:37;;;;;;;3.60;3.30;;;15.60;99.90;;;;;;4956766;28;20997;-65
2022/05/27 05:49:05;;;;;;;4.17;3.77;;;15.60;99.90;;;;;;4956295;28;20484;-66
2022/05/27 05:51:31;;;;;;;5.47;3.60;;;15.60;99.90;;;;;;4956371;28;20464;-66
2022/05/27 05:53:56;;;;;;;4.30;3.10;;;15.70;99.90;;;;;;4956532;28;20429;-66
2022/05/27 05:56:22;;;;;;;6.00;3.30;;;15.70;99.90;;;;;;4956438;28;20802;-66
2022/05/27 05:58:50;;;;;;;4.07;3.50;;;15.70;99.90;;;;;;4955984;28;20173;-66
2022/05/27 06:01:16;;;;;;;5.47;4.10;;;15.60;99.90;;;;;;4956191;28;20193;-66
2022/05/27 06:03:41;;;;;;;4.17;3.33;;;15.60;99.90;;;;;;4956275;28;20452;-66
2022/05/27 06:06:07;;;;;;;3.63;3.27;;;15.50;99.90;;;;;;4956351;28;20461;-66
2022/05/27 06:08:33;;;;;;;4.17;3.87;;;15.50;99.90;;;;;;4956013;28;20539;-66
2022/05/27 06:10:58;;;;;;;3.87;3.47;;;15.40;99.90;;;;;;4955778;28;20287;-66
2022/05/27 06:13:26;;;;;;;4.80;4.30;;;15.40;99.90;;;;;;4956280;28;20214;-66
2022/05/27 06:15:52;;;;;;;4.90;3.90;;;15.60;99.90;;;;;;4956107;28;20643;-66
2022/05/27 06:18:17;;;;;;;4.70;3.37;;;15.60;99.90;;;;;;4955933;28;20416;-66
2022/05/27 06:20:43;;;;;;;5.27;4.07;;;15.60;99.90;;;;;;4955934;28;20197;-66
2022/05/27 06:23:09;;;;;;;3.93;3.63;;;15.60;99.90;;;;;;4956040;28;20359;-66
2022/05/27 06:25:34;;;;;;;4.30;3.90;;;15.60;99.90;;;;;;4955880;28;20670;-66
2022/05/27 06:36:14;;;;;;;6.23;4.07;;;15.70;99.90;;;;;;4955868;29;20426;-66
2022/05/27 06:38:40;;;;;;;4.10;3.50;;;15.80;99.90;;;;;;4955458;28;20420;-66
2022/05/27 06:41:05;;;;;;;4.30;3.63;;;15.80;99.90;;;;;;4955696;28;20794;-66
2022/05/27 06:43:32;;;;;;;3.90;3.50;;;15.80;99.90;;;;;;4955538;28;20173;-66
2022/05/27 06:45:58;;;;;;;4.73;3.17;;;15.90;99.90;;;;;;4955546;28;20169;-66
2022/05/27 06:48:24;;;;;;;5.47;3.43;;;15.90;99.90;;;;;;4955195;28;20451;-66
2022/05/27 06:50:49;;;;;;;7.70;3.60;;;16.00;99.90;;;;;;4955253;28;21016;-66
2022/05/27 06:53:15;;;;;;;6.30;3.47;;;16.10;99.90;;;;;;4955650;28;20181;-66
2022/05/27 06:55:40;;;;;;;6.87;5.80;;;16.10;99.90;;;;;;4955512;28;20547;-66
2022/05/27 06:58:06;;;;;;;5.23;4.23;;;16.10;99.90;;;;;;4955419;28;20177;-66
2022/05/27 07:00:31;;;;;;;3.70;3.40;;;16.20;99.90;;;;;;4954996;28;20209;-66
2022/05/27 07:02:57;;;;;;;3.53;3.33;;;16.10;99.90;;;;;;4955236;28;20181;-66
2022/05/27 07:05:22;;;;;;;3.40;3.10;;;16.30;99.90;;;;;;4955124;28;20540;-66
2022/05/27 07:07:50;;;;;;;3.40;3.03;;;16.40;99.90;;;;;;4955093;28;20525;-66
2022/05/27 07:10:16;;;;;;;5.20;3.37;;;16.40;99.90;;;;;;4954524;28;20205;-66
2022/05/27 07:12:41;;;;;;;4.87;3.20;;;16.60;99.90;;;;;;4955152;28;20760;-66
2022/05/27 07:15:08;;;;;;;6.33;3.30;;;16.70;99.90;;;;;;4954979;29;20200;-66
2022/05/27 07:17:34;;;;;;;4.30;2.93;;;16.90;99.90;;;;;;4954909;28;20252;-65
2022/05/27 07:20:02;;;;;;;5.37;2.90;;;17.10;99.90;;;;;;4954471;28;20444;-66
2022/05/27 07:22:27;;;;;;;4.87;3.40;;;17.00;99.90;;;;;;4953163;28;21050;-66
2022/05/27 07:24:53;;;;;;;5.17;3.00;;;17.20;99.90;;;;;;4954871;28;20417;-66
2022/05/27 07:27:18;;;;;;;4.77;3.63;;;17.20;99.90;;;;;;4954743;28;20192;-66
2022/05/27 07:29:44;;;;;;;6.20;3.53;;;17.10;99.90;;;;;;4954827;28;20207;-66
2022/05/27 07:32:09;;;;;;;3.93;3.33;;;17.20;99.90;;;;;;4954501;28;20205;-66
2022/05/27 07:34:35;;;;;;;5.47;4.13;;;17.30;99.90;;;;;;4954528;28;20180;-66
2022/05/27 07:37:00;;;;;;;4.63;3.80;;;17.20;99.90;;;;;;4954564;28;20336;-66
2022/05/27 07:39:26;;;;;;;6.17;3.83;;;17.20;99.90;;;;;;4954297;28;20727;-66
2022/05/27 07:41:52;;;;;;;5.43;3.27;;;17.20;99.90;;;;;;4954441;28;20255;-66
2022/05/27 07:44:17;;;;;;;3.80;3.07;;;17.00;99.90;;;;;;4954469;28;20181;-66
2022/05/27 07:46:43;;;;;;;7.20;5.73;;;16.80;99.90;;;;;;4954446;28;20565;-66
2022/05/27 07:49:08;;;;;;;5.83;3.80;;;16.80;99.90;;;;;;4954122;28;20216;-66
2022/05/27 07:51:34;;;;;;;3.87;3.30;;;17.10;99.90;;;;;;4954198;28;20260;-66
2022/05/27 07:53:59;;;;;;;4.67;3.00;;;17.30;99.90;;;;;;4954345;28;20166;-66
2022/05/27 07:56:25;;;;;;;4.33;3.70;;;17.50;99.90;;;;;;4954305;28;20194;-66
2022/05/27 07:58:51;;;;;;;4.20;3.30;;;17.50;99.90;;;;;;4953940;28;20670;-66
2022/05/27 08:01:17;;;;;;;3.47;3.17;;;17.30;99.90;;;;;;4954118;28;20447;-65
2022/05/27 08:03:42;;;;;;;3.40;3.10;;;17.20;99.90;;;;;;4954163;28;20181;-66
2022/05/27 08:06:08;;;;;;;3.60;3.30;;;17.20;99.90;;;;;;4954158;28;20175;-66
2022/05/27 08:08:34;;;;;;;6.63;4.90;;;17.30;99.90;;;;;;4953877;28;20176;-66
2022/05/27 08:11:00;;;;;;;3.67;3.37;;;17.20;99.90;;;;;;4953936;28;20224;-66
2022/05/27 08:13:26;;;;;;;3.30;3.00;;;17.30;99.90;;;;;;4954165;28;20169;-66
2022/05/27 08:15:53;;;;;;;3.83;3.53;;;17.40;99.90;;;;;;4954013;28;20508;-66
2022/05/27 08:18:20;;;;;;;3.87;3.57;;;17.40;99.90;;;;;;4953665;28;20447;-66
2022/05/27 08:20:46;;;;;;;5.37;3.30;;;17.40;99.90;;;;;;4954144;28;20448;-66
2022/05/27 08:23:12;;;;;;;4.80;3.20;;;17.50;99.90;;;;;;4954182;28;20433;-66
2022/05/27 08:25:38;;;;;;;4.27;2.93;;;17.60;99.90;;;;;;4953964;28;20427;-66
2022/05/27 08:28:04;;;;;;;3.50;3.20;;;17.70;99.90;;;;;;4953936;28;20271;-67
2022/05/27 08:30:34;;;;;;;5.03;2.93;;;17.90;99.90;;;;;;4953601;28;20445;-66
2022/05/27 08:33:00;;;;;;;3.77;2.70;;;18.20;99.90;;;;;;4953852;28;20420;-66
2022/05/27 08:38:20;;;;;;;3.77;3.47;;;17.80;99.90;;;;;;4957975;29;20435;-66
2022/05/27 08:41:07;;;;;;;3.33;3.00;;;17.60;99.90;;;;;;4957774;28;20961;-66
2022/05/27 08:43:42;;;;;;;4.13;2.50;;;17.60;99.90;;;;;;4957792;28;20421;-66
2022/05/27 08:46:28;;;;;;;3.30;2.93;;;17.70;99.90;;;;;;4957672;28;20416;-66
2022/05/27 08:48:58;;;;;;;3.60;2.97;;;17.50;99.90;;;;;;4957422;28;20428;-66
2022/05/27 08:51:35;;;;;;;3.13;2.90;;;17.20;99.90;;;;;;4957514;28;20841;-66
2022/05/27 08:54:13;;;;;;;7.73;5.13;;;17.30;99.90;;;;;;4957592;28;20424;-66
2022/05/27 08:59:40;;;;;;;3.67;3.20;;;17.30;99.90;;;;;;4957580;29;20940;-66
2022/05/27 09:02:30;;;;;;;4.13;3.10;;;17.50;99.90;;;;;;4957374;28;20428;-66
2022/05/27 09:05:24;;;;;;;3.90;3.53;;;17.60;99.90;;;;;;4957358;28;20507;-66
2022/05/27 09:08:00;;;;;;;2.80;2.60;;;17.90;99.90;;;;;;4957382;28;20428;-66
2022/05/27 09:10:41;;;;;;;3.17;2.87;;;17.90;99.90;;;;;;4956766;28;20606;-66
2022/05/27 09:13:16;;;;;;;4.30;3.33;;;17.90;99.90;;;;;;4957306;28;20436;-66
2022/05/27 09:16:01;;;;;;;3.27;3.03;;;18.10;99.90;;;;;;4957282;28;20427;-66
2022/05/27 09:19:01;;;;;;;5.00;2.90;;;18.40;99.90;;;;;;4957123;28;20930;-66
2022/05/27 09:21:58;;;;;;;3.77;2.70;;;18.90;99.90;;;;;;4957201;28;20452;-66
2022/05/27 09:24:50;;;;;;;4.57;3.43;;;19.70;99.90;;;;;;4957073;28;20424;-66
2022/05/27 09:27:29;;;;;;;4.53;3.83;;;20.20;99.90;;;;;;4957060;28;20420;-66
2022/05/27 09:30:06;;;;;;;4.37;2.73;;;20.60;99.90;;;;;;4956562;28;20424;-66
2022/05/27 09:32:44;;;;;;;3.87;2.80;;;20.90;99.90;;;;;;4956769;28;20503;-66
2022/05/27 09:35:24;;;;;;;3.63;2.60;;;21.20;99.90;;;;;;4956852;28;20434;-66
2022/05/27 09:37:52;;;;;;;4.10;3.50;;;21.70;99.90;;;;;;4957060;28;20954;-66
2022/05/27 09:40:33;;;;;;;3.33;3.03;;;21.80;99.90;;;;;;4956432;28;20475;-67
2022/05/27 09:43:04;;;;;;;3.03;2.57;;;22.60;99.90;;;;;;4956701;28;20906;-66
2022/05/27 09:45:30;;;;;;;3.23;2.83;;;22.70;99.90;;;;;;4956341;28;20417;-66
2022/05/27 09:48:00;;;;;;;7.00;2.70;;;22.90;99.90;;;;;;4956478;28;20997;-66
2022/05/27 09:50:34;;;;;;;2.30;2.10;;;23.40;99.40;;;;;;4956138;28;20616;-66
2022/05/27 09:53:00;;;;;;;3.43;2.60;;;23.60;98.10;;;;;;4956599;28;20776;-67
2022/05/27 09:55:27;;;;;;;2.53;2.37;;;22.70;97.90;;;;;;4956481;28;20910;-66
2022/05/27 09:58:05;;;;;;;2.53;2.30;;;22.60;98.20;;;;;;4956311;28;20423;-66
2022/05/27 10:00:37;;;;;;;2.80;2.60;;;22.90;97.90;;;;;;4956108;28;20471;-66
2022/05/27 10:03:33;;;;;;;2.53;2.33;;;22.40;97.90;;;;;;4956543;28;20416;-66
2022/05/27 10:06:06;;;;;;;2.40;2.30;;;22.70;97.00;;;;;;4956545;28;20816;-67
2022/05/27 10:08:32;;;;;;;3.40;2.40;;;23.00;96.80;;;;;;4955919;28;20490;-66
2022/05/27 10:11:14;;;;;;;2.70;2.50;;;23.90;95.80;;;;;;4955881;28;20504;-67
2022/05/27 10:13:41;;;;;;;5.67;2.73;;;23.90;93.60;;;;;;4956105;28;20423;-67
2022/05/27 10:16:23;;;;;;;3.30;2.40;;;24.30;92.60;;;;;;4956066;28;20508;-67
2022/05/27 10:19:13;;;;;;;2.77;2.57;;;24.80;92.00;;;;;;4955790;28;20420;-67
2022/05/27 10:21:59;;;;;;;3.33;2.27;;;24.90;90.70;;;;;;4956552;28;20444;-66
2022/05/27 10:24:32;;;;;;;2.40;2.30;;;25.10;89.50;;;;;;4955972;28;20839;-66
2022/05/27 10:27:06;;;;;;;2.37;2.00;;;24.20;90.50;;;;;;4955879;28;20424;-66
2022/05/27 10:29:34;;;;;;;2.70;2.40;;;23.90;90.20;;;;;;4955471;28;20431;-66
2022/05/27 10:32:01;;;;;;;2.30;1.97;;;24.80;86.60;;;;;;4955645;28;20479;-66
2022/05/27 10:34:46;;;;;;;2.17;1.97;;;25.00;85.80;;;;;;4955756;28;20511;-66
2022/05/27 10:37:39;;;;;;;2.17;1.97;;;25.80;83.80;;;;;;4955437;28;20432;-66
2022/05/27 10:40:36;;;;;;;3.03;2.10;;;25.00;84.70;;;;;;4955814;28;20444;-66
2022/05/27 10:43:11;;;;;;;2.07;1.80;;;24.30;87.00;;;;;;4955549;28;20420;-66
2022/05/27 10:45:47;;;;;;;2.63;2.47;;;24.70;85.30;;;;;;4955543;28;20427;-66
2022/05/27 10:48:51;;;;;;;3.63;2.00;;;25.60;82.60;;;;;;4955222;28;20439;-66
2022/05/27 10:51:39;;;;;;;1.77;1.67;;;25.40;78.70;;;;;;4955268;28;20492;-66
2022/05/27 10:54:21;;;;;;;2.30;2.10;;;25.10;80.80;;;;;;4955478;28;20423;-66
2022/05/27 11:03:17;;;;;;;2.80;2.10;;;23.90;82.40;;;;;;4955398;29;20452;-66
2022/05/27 11:06:14;;;;;;;3.07;2.20;;;23.30;86.00;;;;;;4955460;28;20816;-66
2022/05/27 11:08:54;;;;;;;4.47;3.47;;;23.50;86.10;;;;;;4951894;28;20471;-66
2022/05/27 11:11:52;;;;;;;1.90;1.80;;;23.00;86.10;;;;;;4954822;28;20476;-66
2022/05/27 11:17:46;;;;;;;2.00;1.90;;;22.70;88.20;;;;;;4955073;29;20832;-66
2022/05/27 11:20:35;;;;;;;2.50;2.10;;;23.10;88.90;;;;;;4954622;28;20447;-66
2022/05/27 11:23:13;;;;;;;2.10;1.90;;;22.70;89.10;;;;;;4954983;28;20420;-66
2022/05/27 11:25:43;;;;;;;2.37;2.17;;;23.10;88.60;;;;;;4954740;28;20420;-66
2022/05/27 11:28:40;;;;;;;2.50;2.30;;;22.60;88.40;;;;;;4954713;28;20432;-66
2022/05/27 11:31:50;;;;;;;2.40;2.20;;;22.40;89.50;;;;;;4954664;28;20464;-66
2022/05/27 11:34:46;;;;;;;2.63;1.80;;;22.30;90.00;;;;;;4932571;28;20439;-66
2022/05/27 11:37:25;;;;;;;2.40;2.20;;;22.30;90.00;;;;;;4954601;28;20435;-66
2022/05/27 11:40:09;;;;;;;2.93;2.10;;;22.40;90.30;;;;;;4954308;28;20428;-66
2022/05/27 11:43:07;;;;;;;2.20;2.10;;;22.30;90.30;;;;;;4954616;28;20446;-66
2022/05/27 11:45:34;;;;;;;2.17;2.07;;;21.80;90.70;;;;;;4954525;28;20889;-66
2022/05/27 11:48:08;;;;;;;2.77;2.10;;;21.80;91.40;;;;;;4954404;28;20911;-66
2022/05/27 11:50:57;;;;;;;4.73;4.20;;;22.00;91.20;;;;;;4954092;28;20456;-66
2022/05/27 11:53:40;;;;;;;2.47;2.27;;;22.10;91.60;;;;;;4954424;28;20427;-66
2022/05/27 11:56:31;;;;;;;4.00;2.07;;;22.10;91.40;;;;;;4954401;28;20425;-66
2022/05/27 11:58:58;;;;;;;2.83;2.57;;;22.60;91.30;;;;;;4954013;28;20421;-66
2022/05/27 12:01:43;;;;;;;2.47;2.27;;;22.70;90.60;;;;;;4954152;28;20531;-66
2022/05/27 12:04:26;;;;;;;2.63;2.43;;;22.20;90.90;;;;;;4954376;28;20420;-66
2022/05/27 12:07:13;;;;;;;2.23;1.93;;;22.00;92.20;;;;;;4954152;28;20455;-66
2022/05/27 12:10:15;;;;;;;2.13;2.03;;;22.30;92.20;;;;;;4953414;28;20420;-66
2022/05/27 12:13:05;;;;;;;5.50;2.30;;;22.40;91.90;;;;;;4938524;28;20514;-66
2022/05/27 12:16:07;;;;;;;2.23;2.13;;;22.40;91.80;;;;;;4954083;28;20429;-66
2022/05/27 12:18:45;;;;;;;2.30;1.93;;;22.90;91.30;;;;;;4932675;28;20467;-66
2022/05/27 12:21:15;;;;;;;1.97;1.77;;;24.00;89.40;;;;;;4953987;28;20424;-66
2022/05/27 12:23:47;;;;;;;2.80;1.93;;;25.90;85.30;;;;;;4953938;28;20425;-66
2022/05/27 12:26:14;;;;;;;2.20;1.70;;;26.50;83.40;;;;;;4953944;28;20417;-66
2022/05/27 12:28:43;;;;;;;2.23;2.03;;;25.70;81.50;;;;;;4953641;28;20425;-66
2022/05/27 12:31:10;;;;;;;1.87;1.77;;;24.80;84.20;;;;;;4953762;28;20546;-66
2022/05/27 12:33:37;;;;;;;2.17;1.97;;;24.90;85.90;;;;;;4953965;28;20994;-66
2022/05/27 12:36:05;;;;;;;2.00;1.60;;;25.70;82.40;;;;;;4953865;28;20416;-66
2022/05/27 12:38:34;;;;;;;3.47;1.93;;;25.10;82.90;;;;;;4953509;28;20475;-66
2022/05/27 12:41:10;;;;;;;2.20;2.10;;;24.20;84.30;;;;;;4953722;28;20452;-66
2022/05/27 12:43:38;;;;;;;1.87;1.77;;;23.40;87.30;;;;;;4953676;28;20857;-66
2022/05/27 12:46:03;;;;;;;2.80;2.37;;;23.10;89.20;;;;;;4953737;28;20453;-66
2022/05/27 12:48:38;;;;;;;2.80;2.60;;;22.90;90.60;;;;;;4953486;28;20989;-66
2022/05/27 12:51:14;;;;;;;2.40;2.20;;;22.60;90.40;;;;;;4953488;28;20303;-66
2022/05/27 12:53:51;;;;;;;2.13;1.93;;;22.50;91.10;;;;;;4953923;28;20517;-66
2022/05/27 13:02:21;;;;;;;2.00;1.90;;;23.30;90.50;;;;;;4953673;29;20435;-66
2022/05/27 13:04:53;;;;;;;2.33;2.23;;;22.80;91.00;;;;;;4953728;28;20428;-66
2022/05/27 13:07:28;;;;;;;2.20;2.10;;;22.50;91.60;;;;;;4953632;28;20428;-66
2022/05/27 13:09:55;;;;;;;2.20;2.00;;;22.50;91.60;;;;;;4952950;28;20442;-66
2022/05/27 13:12:42;;;;;;;1.93;1.83;;;22.50;91.80;;;;;;4953778;28;20522;-66
2022/05/27 13:15:34;;;;;;;2.10;1.90;;;22.40;92.20;;;;;;4953498;28;20440;-66
2022/05/27 13:18:18;;;;;;;2.70;2.20;;;22.20;93.10;;;;;;4947960;28;20475;-66
2022/05/27 13:21:09;;;;;;;2.47;2.23;;;22.10;92.70;;;;;;4954713;28;20436;-66
2022/05/27 13:23:49;;;;;;;2.47;2.27;;;22.20;93.00;;;;;;4957078;28;20830;-66
2022/05/27 13:26:39;;;;;;;2.00;1.90;;;22.20;92.90;;;;;;4957062;28;20910;-66
2022/05/27 13:29:25;;;;;;;3.47;2.00;;;22.20;92.90;;;;;;4956201;28;20479;-66
2022/05/27 13:32:23;;;;;;;2.43;2.27;;;22.50;92.70;;;;;;4956793;28;20464;-66
2022/05/27 13:35:00;;;;;;;1.90;1.80;;;23.00;92.30;;;;;;4951350;29;20574;-66
2022/05/27 13:37:38;;;;;;;2.20;2.10;;;23.50;91.80;;;;;;4956746;28;20420;-66
2022/05/27 13:40:09;;;;;;;3.93;2.20;;;23.40;92.00;;;;;;4956387;28;20444;-66
2022/05/27 13:42:45;;;;;;;2.80;2.10;;;23.00;91.50;;;;;;4956830;28;20456;-66
2022/05/27 13:45:23;;;;;;;1.80;1.70;;;22.90;91.80;;;;;;4956648;28;20427;-66
2022/05/27 13:47:56;;;;;;;1.60;1.50;;;22.80;91.90;;;;;;4956732;28;20420;-66
2022/05/27 13:50:35;;;;;;;2.20;1.80;;;22.70;92.00;;;;;;4956289;28;20448;-66